Metar z połowy godziny Komunikat METAR ze strony awiacja.imgw.pl Metar G30 EPRZ METAR EPRZ 241930Z 27009KT 9999 BKN007 OVC023 14/13 Q1012 =